sensor_id;sensor_type;location;lat;lon;timestamp;pressure;altitude;pressure_sealevel;temperature;humidity
5691;BME280;2870;42.680;23.364;2023-02-19T00:01:27;95397.69;;;7.96;61.47
5691;BME280;2870;42.680;23.364;2023-02-19T00:03:56;95405.19;;;7.88;61.49
5691;BME280;2870;42.680;23.364;2023-02-19T00:06:26;95394.16;;;7.95;61.93
5691;BME280;2870;42.680;23.364;2023-02-19T00:08:53;95405.00;;;7.99;61.70
5691;BME280;2870;42.680;23.364;2023-02-19T00:11:24;95399.00;;;7.95;61.66
5691;BME280;2870;42.680;23.364;2023-02-19T00:13:53;95398.84;;;7.61;63.12
5691;BME280;2870;42.680;23.364;2023-02-19T00:16:23;95380.69;;;7.81;62.41
5691;BME280;2870;42.680;23.364;2023-02-19T00:18:50;95391.53;;;7.71;62.61
5691;BME280;2870;42.680;23.364;2023-02-19T00:21:18;95393.25;;;7.74;62.76
5691;BME280;2870;42.680;23.364;2023-02-19T00:23:47;95394.31;;;7.58;63.01
5691;BME280;2870;42.680;23.364;2023-02-19T00:26:14;95373.25;;;7.57;63.49
5691;BME280;2870;42.680;23.364;2023-02-19T00:28:43;95386.72;;;7.72;63.63
5691;BME280;2870;42.680;23.364;2023-02-19T00:31:15;95370.91;;;7.61;63.32
5691;BME280;2870;42.680;23.364;2023-02-19T00:33:42;95382.59;;;7.59;64.40
5691;BME280;2870;42.680;23.364;2023-02-19T00:36:09;95375.50;;;7.45;64.40
5691;BME280;2870;42.680;23.364;2023-02-19T00:38:37;95383.13;;;7.44;64.62
5691;BME280;2870;42.680;23.364;2023-02-19T00:41:04;95371.41;;;7.46;64.80
5691;BME280;2870;42.680;23.364;2023-02-19T00:43:45;95382.31;;;7.31;64.89
5691;BME280;2870;42.680;23.364;2023-02-19T00:46:12;95373.00;;;7.41;64.85
5691;BME280;2870;42.680;23.364;2023-02-19T00:48:39;95366.28;;;7.18;65.73
5691;BME280;2870;42.680;23.364;2023-02-19T00:51:06;95351.75;;;7.06;66.17
5691;BME280;2870;42.680;23.364;2023-02-19T00:53:33;95362.38;;;7.08;66.28
5691;BME280;2870;42.680;23.364;2023-02-19T00:56:00;95349.75;;;7.20;66.08
5691;BME280;2870;42.680;23.364;2023-02-19T00:58:26;95359.59;;;7.08;66.85
5691;BME280;2870;42.680;23.364;2023-02-19T01:00:54;95349.75;;;7.20;66.43
5691;BME280;2870;42.680;23.364;2023-02-19T01:03:21;95355.69;;;6.98;67.03
5691;BME280;2870;42.680;23.364;2023-02-19T01:05:48;95355.84;;;7.05;67.29
5691;BME280;2870;42.680;23.364;2023-02-19T01:08:15;95358.09;;;7.07;66.99
5691;BME280;2870;42.680;23.364;2023-02-19T01:10:42;95362.00;;;7.17;66.77
5691;BME280;2870;42.680;23.364;2023-02-19T01:13:09;95358.72;;;7.32;66.67
5691;BME280;2870;42.680;23.364;2023-02-19T01:15:36;95366.38;;;7.12;66.25
5691;BME280;2870;42.680;23.364;2023-02-19T01:18:05;95361.06;;;6.96;67.30
5691;BME280;2870;42.680;23.364;2023-02-19T01:20:32;95345.59;;;6.95;67.21
5691;BME280;2870;42.680;23.364;2023-02-19T01:22:58;95350.97;;;6.93;67.37
5691;BME280;2870;42.680;23.364;2023-02-19T01:25:25;95343.44;;;6.87;67.57
5691;BME280;2870;42.680;23.364;2023-02-19T01:27:52;95356.47;;;6.79;67.70
5691;BME280;2870;42.680;23.364;2023-02-19T01:30:19;95360.75;;;6.80;67.69
5691;BME280;2870;42.680;23.364;2023-02-19T01:32:46;95375.38;;;6.68;68.30
5691;BME280;2870;42.680;23.364;2023-02-19T01:35:14;95357.75;;;6.78;67.89
5691;BME280;2870;42.680;23.364;2023-02-19T01:37:40;95359.19;;;6.66;68.14
5691;BME280;2870;42.680;23.364;2023-02-19T01:40:08;95370.81;;;6.70;68.19
5691;BME280;2870;42.680;23.364;2023-02-19T01:42:35;95368.81;;;6.84;68.33
5691;BME280;2870;42.680;23.364;2023-02-19T01:45:24;95392.97;;;6.81;67.71
5691;BME280;2870;42.680;23.364;2023-02-19T01:48:05;95395.31;;;6.58;68.51
5691;BME280;2870;42.680;23.364;2023-02-19T01:50:39;95397.16;;;6.69;67.58
5691;BME280;2870;42.680;23.364;2023-02-19T01:53:09;95391.59;;;6.69;68.03
5691;BME280;2870;42.680;23.364;2023-02-19T01:55:38;95394.22;;;6.80;67.98
5691;BME280;2870;42.680;23.364;2023-02-19T01:58:05;95397.63;;;6.73;68.12
5691;BME280;2870;42.680;23.364;2023-02-19T02:00:34;95399.44;;;6.71;68.11
5691;BME280;2870;42.680;23.364;2023-02-19T02:03:01;95376.06;;;6.55;68.37
5691;BME280;2870;42.680;23.364;2023-02-19T02:05:44;95385.94;;;6.75;67.81
5691;BME280;2870;42.680;23.364;2023-02-19T02:08:14;95355.28;;;6.56;67.60
5691;BME280;2870;42.680;23.364;2023-02-19T02:11:01;95399.44;;;6.71;67.82
5691;BME280;2870;42.680;23.364;2023-02-19T02:13:28;95390.84;;;6.69;67.69
5691;BME280;2870;42.680;23.364;2023-02-19T02:16:01;95390.75;;;6.74;67.60
5691;BME280;2870;42.680;23.364;2023-02-19T02:18:39;95385.41;;;6.76;67.31
5691;BME280;2870;42.680;23.364;2023-02-19T02:21:33;95404.13;;;6.81;67.41
5691;BME280;2870;42.680;23.364;2023-02-19T02:24:10;95406.22;;;6.94;67.27
5691;BME280;2870;42.680;23.364;2023-02-19T02:26:54;95399.13;;;6.55;68.04
5691;BME280;2870;42.680;23.364;2023-02-19T02:32:39;95407.28;;;6.72;67.93
5691;BME280;2870;42.680;23.364;2023-02-19T02:35:20;95391.59;;;6.69;67.85
5691;BME280;2870;42.680;23.364;2023-02-19T02:37:49;95391.22;;;6.59;68.20
5691;BME280;2870;42.680;23.364;2023-02-19T02:40:17;95396.66;;;6.71;67.82
5691;BME280;2870;42.680;23.364;2023-02-19T02:42:44;95390.84;;;6.69;67.59
5691;BME280;2870;42.680;23.364;2023-02-19T02:45:35;95386.84;;;6.83;67.48
5691;BME280;2870;42.680;23.364;2023-02-19T02:48:18;95388.47;;;6.91;66.53
5691;BME280;2870;42.680;23.364;2023-02-19T02:50:49;95383.91;;;6.94;66.36
5691;BME280;2870;42.680;23.364;2023-02-19T02:53:22;95389.16;;;6.98;66.69
5691;BME280;2870;42.680;23.364;2023-02-19T02:56:09;95388.63;;;6.80;66.92
5691;BME280;2870;42.680;23.364;2023-02-19T02:58:39;95376.66;;;6.85;66.87
5691;BME280;2870;42.680;23.364;2023-02-19T03:01:07;95399.44;;;6.89;67.05
5691;BME280;2870;42.680;23.364;2023-02-19T03:03:59;95398.81;;;6.97;66.83
5691;BME280;2870;42.680;23.364;2023-02-19T03:06:29;95399.44;;;6.89;66.64
5691;BME280;2870;42.680;23.364;2023-02-19T03:09:01;95403.88;;;6.79;66.78
5691;BME280;2870;42.680;23.364;2023-02-19T03:11:31;95411.88;;;6.88;67.03
5691;BME280;2870;42.680;23.364;2023-02-19T03:14:21;95415.41;;;6.89;66.96
5691;BME280;2870;42.680;23.364;2023-02-19T03:17:09;95390.91;;;6.63;66.05
5691;BME280;2870;42.680;23.364;2023-02-19T03:20:00;95411.81;;;6.75;66.69
5691;BME280;2870;42.680;23.364;2023-02-19T03:22:32;95422.03;;;6.67;66.73
5691;BME280;2870;42.680;23.364;2023-02-19T03:25:04;95410.88;;;6.67;66.23
5691;BME280;2870;42.680;23.364;2023-02-19T03:27:50;95434.09;;;6.75;66.71
5691;BME280;2870;42.680;23.364;2023-02-19T03:30:19;95421.97;;;6.54;67.61
5691;BME280;2870;42.680;23.364;2023-02-19T03:32:50;95428.47;;;6.37;67.96
5691;BME280;2870;42.680;23.364;2023-02-19T03:35:22;95432.78;;;6.57;67.87
5691;BME280;2870;42.680;23.364;2023-02-19T03:37:54;95445.53;;;6.72;67.31
5691;BME280;2870;42.680;23.364;2023-02-19T03:40:27;95445.53;;;6.53;67.58
5691;BME280;2870;42.680;23.364;2023-02-19T03:43:02;95453.00;;;6.20;68.58
5691;BME280;2870;42.680;23.364;2023-02-19T03:45:37;95451.00;;;6.40;68.55
5691;BME280;2870;42.680;23.364;2023-02-19T03:48:19;95447.78;;;6.35;68.66
5691;BME280;2870;42.680;23.364;2023-02-19T03:50:53;95429.31;;;6.08;68.94
5691;BME280;2870;42.680;23.364;2023-02-19T03:53:26;95455.31;;;6.16;69.15
5691;BME280;2870;42.680;23.364;2023-02-19T03:56:03;95461.09;;;5.94;70.08
5691;BME280;2870;42.680;23.364;2023-02-19T03:58:37;95463.03;;;6.04;69.49
5691;BME280;2870;42.680;23.364;2023-02-19T04:01:08;95454.13;;;6.06;69.70
5691;BME280;2870;42.680;23.364;2023-02-19T04:03:39;95451.13;;;6.04;69.90
5691;BME280;2870;42.680;23.364;2023-02-19T04:06:13;95457.19;;;6.08;70.23
5691;BME280;2870;42.680;23.364;2023-02-19T04:08:44;95460.78;;;6.03;70.33
5691;BME280;2870;42.680;23.364;2023-02-19T04:11:12;95457.06;;;5.89;70.87
5691;BME280;2870;42.680;23.364;2023-02-19T04:13:43;95457.28;;;5.97;70.23
5691;BME280;2870;42.680;23.364;2023-02-19T04:16:19;95459.09;;;6.19;70.17
5691;BME280;2870;42.680;23.364;2023-02-19T04:18:48;95470.28;;;6.13;70.03
5691;BME280;2870;42.680;23.364;2023-02-19T04:21:19;95473.59;;;6.11;70.17
5691;BME280;2870;42.680;23.364;2023-02-19T04:23:48;95463.59;;;5.97;70.61
5691;BME280;2870;42.680;23.364;2023-02-19T04:26:16;95465.59;;;6.02;70.38
5691;BME280;2870;42.680;23.364;2023-02-19T04:28:44;95464.38;;;5.98;70.96
5691;BME280;2870;42.680;23.364;2023-02-19T04:31:12;95465.47;;;5.83;71.50
5691;BME280;2870;42.680;23.364;2023-02-19T04:33:38;95475.50;;;5.98;70.68
5691;BME280;2870;42.680;23.364;2023-02-19T04:36:08;95470.16;;;6.00;70.36
5691;BME280;2870;42.680;23.364;2023-02-19T04:38:36;95467.19;;;6.17;70.00
5691;BME280;2870;42.680;23.364;2023-02-19T04:41:03;95468.53;;;6.10;70.02
5691;BME280;2870;42.680;23.364;2023-02-19T04:43:30;95478.72;;;6.07;69.94
5691;BME280;2870;42.680;23.364;2023-02-19T04:45:59;95478.88;;;6.15;69.81
5691;BME280;2870;42.680;23.364;2023-02-19T04:48:27;95478.13;;;6.15;69.88
5691;BME280;2870;42.680;23.364;2023-02-19T04:50:53;95451.84;;;6.10;69.91
5691;BME280;2870;42.680;23.364;2023-02-19T04:53:21;95474.69;;;6.03;70.39
5691;BME280;2870;42.680;23.364;2023-02-19T04:55:49;95479.56;;;5.97;70.68
5691;BME280;2870;42.680;23.364;2023-02-19T04:58:18;95476.16;;;6.09;70.16
5691;BME280;2870;42.680;23.364;2023-02-19T05:00:45;95480.66;;;6.13;69.96
5691;BME280;2870;42.680;23.364;2023-02-19T05:03:12;95487.69;;;6.19;69.65
5691;BME280;2870;42.680;23.364;2023-02-19T05:05:39;95482.88;;;6.20;69.24
5691;BME280;2870;42.680;23.364;2023-02-19T05:08:05;95487.94;;;6.21;70.16
5691;BME280;2870;42.680;23.364;2023-02-19T05:10:32;95486.16;;;6.18;69.19
5691;BME280;2870;42.680;23.364;2023-02-19T05:13:01;95479.84;;;6.18;69.87
5691;BME280;2870;42.680;23.364;2023-02-19T05:15:27;95471.91;;;6.27;68.94
5691;BME280;2870;42.680;23.364;2023-02-19T05:17:54;95489.13;;;6.50;68.84
5691;BME280;2870;42.680;23.364;2023-02-19T05:20:21;95485.13;;;6.46;69.12
5691;BME280;2870;42.680;23.364;2023-02-19T05:22:48;95496.09;;;6.38;69.03
5691;BME280;2870;42.680;23.364;2023-02-19T05:25:15;95487.59;;;6.30;68.92
5691;BME280;2870;42.680;23.364;2023-02-19T05:27:41;95493.84;;;6.36;69.30
5691;BME280;2870;42.680;23.364;2023-02-19T05:30:10;95489.31;;;6.33;69.29
5691;BME280;2870;42.680;23.364;2023-02-19T05:32:37;95492.63;;;6.32;69.48
5691;BME280;2870;42.680;23.364;2023-02-19T05:35:04;95503.13;;;6.20;69.72
5691;BME280;2870;42.680;23.364;2023-02-19T05:37:31;95514.75;;;6.24;70.09
5691;BME280;2870;42.680;23.364;2023-02-19T05:39:58;95516.84;;;6.43;69.46
5691;BME280;2870;42.680;23.364;2023-02-19T05:42:24;95485.84;;;6.27;69.59
5691;BME280;2870;42.680;23.364;2023-02-19T05:44:51;95517.38;;;6.41;69.51
5691;BME280;2870;42.680;23.364;2023-02-19T05:47:19;95516.94;;;6.56;69.28
5691;BME280;2870;42.680;23.364;2023-02-19T05:49:46;95522.16;;;6.41;69.64
5691;BME280;2870;42.680;23.364;2023-02-19T05:52:13;95527.50;;;6.63;69.02
5691;BME280;2870;42.680;23.364;2023-02-19T05:54:40;95513.69;;;6.76;68.06
5691;BME280;2870;42.680;23.364;2023-02-19T05:57:06;95519.19;;;6.57;69.15
5691;BME280;2870;42.680;23.364;2023-02-19T05:59:33;95521.34;;;6.46;69.87
5691;BME280;2870;42.680;23.364;2023-02-19T06:02:00;95529.28;;;6.85;68.69
5691;BME280;2870;42.680;23.364;2023-02-19T06:04:28;95527.09;;;6.97;68.96
5691;BME280;2870;42.680;23.364;2023-02-19T06:06:55;95537.63;;;7.09;68.32
5691;BME280;2870;42.680;23.364;2023-02-19T06:09:22;95543.13;;;7.15;68.24
5691;BME280;2870;42.680;23.364;2023-02-19T06:11:48;95541.00;;;7.40;68.28
5691;BME280;2870;42.680;23.364;2023-02-19T06:14:15;95534.00;;;7.33;67.97
5691;BME280;2870;42.680;23.364;2023-02-19T06:16:42;95553.47;;;7.71;66.66
5691;BME280;2870;42.680;23.364;2023-02-19T06:19:09;95546.41;;;7.70;66.51
5691;BME280;2870;42.680;23.364;2023-02-19T06:21:37;95538.38;;;7.80;67.05
5691;BME280;2870;42.680;23.364;2023-02-19T06:24:06;95536.59;;;7.63;65.91
5691;BME280;2870;42.680;23.364;2023-02-19T06:26:33;95554.75;;;7.89;66.20
5691;BME280;2870;42.680;23.364;2023-02-19T06:28:59;95546.31;;;8.08;65.83
5691;BME280;2870;42.680;23.364;2023-02-19T06:31:26;95546.03;;;8.24;65.71
5691;BME280;2870;42.680;23.364;2023-02-19T06:33:53;95552.72;;;8.35;64.61
5691;BME280;2870;42.680;23.364;2023-02-19T06:36:21;95557.41;;;8.45;64.02
5691;BME280;2870;42.680;23.364;2023-02-19T06:38:49;95553.31;;;8.60;62.75
5691;BME280;2870;42.680;23.364;2023-02-19T06:41:16;95545.47;;;8.71;62.44
5691;BME280;2870;42.680;23.364;2023-02-19T06:43:43;95546.66;;;9.02;60.90
5691;BME280;2870;42.680;23.364;2023-02-19T06:46:11;95547.63;;;9.05;60.66
5691;BME280;2870;42.680;23.364;2023-02-19T06:48:39;95558.03;;;9.31;60.41
5691;BME280;2870;42.680;23.364;2023-02-19T06:51:10;95560.56;;;9.55;59.53
5691;BME280;2870;42.680;23.364;2023-02-19T06:53:37;95554.88;;;9.82;59.24
5691;BME280;2870;42.680;23.364;2023-02-19T06:56:18;95557.28;;;10.20;57.92
5691;BME280;2870;42.680;23.364;2023-02-19T06:58:46;95563.13;;;10.43;57.55
5691;BME280;2870;42.680;23.364;2023-02-19T07:01:13;95568.91;;;10.66;56.59
5691;BME280;2870;42.680;23.364;2023-02-19T07:03:40;95572.63;;;10.89;55.16
5691;BME280;2870;42.680;23.364;2023-02-19T07:06:07;95581.25;;;11.20;54.46
5691;BME280;2870;42.680;23.364;2023-02-19T07:08:33;95579.72;;;11.55;53.08
5691;BME280;2870;42.680;23.364;2023-02-19T07:11:00;95573.38;;;11.62;51.24
5691;BME280;2870;42.680;23.364;2023-02-19T07:13:29;95573.53;;;12.08;51.13
5691;BME280;2870;42.680;23.364;2023-02-19T07:15:57;95561.00;;;12.47;49.72
5691;BME280;2870;42.680;23.364;2023-02-19T07:18:24;95566.63;;;12.93;48.52
5691;BME280;2870;42.680;23.364;2023-02-19T07:20:51;95561.47;;;13.37;46.97
5691;BME280;2870;42.680;23.364;2023-02-19T07:23:18;95558.81;;;13.87;47.11
5691;BME280;2870;42.680;23.364;2023-02-19T07:25:44;95548.53;;;14.15;45.33
5691;BME280;2870;42.680;23.364;2023-02-19T07:28:11;95543.50;;;13.73;45.44
5691;BME280;2870;42.680;23.364;2023-02-19T07:30:39;95539.91;;;14.05;44.93
5691;BME280;2870;42.680;23.364;2023-02-19T07:33:06;95535.66;;;14.54;43.86
5691;BME280;2870;42.680;23.364;2023-02-19T07:35:33;95545.97;;;15.36;43.21
5691;BME280;2870;42.680;23.364;2023-02-19T07:38:00;95548.72;;;15.26;42.20
5691;BME280;2870;42.680;23.364;2023-02-19T07:40:26;95549.06;;;15.65;41.82
5691;BME280;2870;42.680;23.364;2023-02-19T07:42:53;95534.91;;;15.65;41.20
5691;BME280;2870;42.680;23.364;2023-02-19T07:45:20;95543.56;;;15.15;42.53
5691;BME280;2870;42.680;23.364;2023-02-19T07:47:48;95546.66;;;14.67;43.06
5691;BME280;2870;42.680;23.364;2023-02-19T07:50:15;95529.09;;;15.28;42.56
5691;BME280;2870;42.680;23.364;2023-02-19T07:52:41;95543.31;;;15.38;42.18
5691;BME280;2870;42.680;23.364;2023-02-19T07:55:08;95542.00;;;15.22;42.96
5691;BME280;2870;42.680;23.364;2023-02-19T07:57:35;95552.88;;;15.25;42.56
5691;BME280;2870;42.680;23.364;2023-02-19T08:00:02;95549.13;;;15.05;42.29
5691;BME280;2870;42.680;23.364;2023-02-19T08:02:29;95533.28;;;14.43;44.20
5691;BME280;2870;42.680;23.364;2023-02-19T08:05:14;95544.16;;;14.46;44.50
5691;BME280;2870;42.680;23.364;2023-02-19T08:07:41;95539.66;;;13.86;45.02
5691;BME280;2870;42.680;23.364;2023-02-19T08:10:08;95530.25;;;13.91;45.57
5691;BME280;2870;42.680;23.364;2023-02-19T08:12:56;95532.78;;;14.04;45.45
5691;BME280;2870;42.680;23.364;2023-02-19T08:15:41;95533.63;;;13.89;45.03
5691;BME280;2870;42.680;23.364;2023-02-19T08:18:08;95523.09;;;13.57;45.26
5691;BME280;2870;42.680;23.364;2023-02-19T08:20:36;95532.47;;;13.60;45.51
5691;BME280;2870;42.680;23.364;2023-02-19T08:23:03;95541.09;;;14.02;44.79
5691;BME280;2870;42.680;23.364;2023-02-19T08:25:30;95536.94;;;14.03;44.52
5691;BME280;2870;42.680;23.364;2023-02-19T08:27:57;95529.81;;;13.94;45.18
5691;BME280;2870;42.680;23.364;2023-02-19T08:30:25;95527.50;;;13.75;45.67
5691;BME280;2870;42.680;23.364;2023-02-19T08:32:51;95534.47;;;13.74;45.29
5691;BME280;2870;42.680;23.364;2023-02-19T08:35:18;95535.00;;;14.13;44.95
5691;BME280;2870;42.680;23.364;2023-02-19T08:37:46;95532.72;;;14.12;44.52
5691;BME280;2870;42.680;23.364;2023-02-19T08:40:13;95534.66;;;14.34;44.20
5691;BME280;2870;42.680;23.364;2023-02-19T08:42:40;95528.34;;;14.51;44.00
5691;BME280;2870;42.680;23.364;2023-02-19T08:45:07;95525.09;;;14.29;43.74
5691;BME280;2870;42.680;23.364;2023-02-19T08:47:35;95524.41;;;14.21;44.35
5691;BME280;2870;42.680;23.364;2023-02-19T08:50:03;95512.50;;;14.30;44.76
5691;BME280;2870;42.680;23.364;2023-02-19T08:52:30;95508.59;;;14.68;44.41
5691;BME280;2870;42.680;23.364;2023-02-19T08:54:58;95512.66;;;15.34;42.75
5691;BME280;2870;42.680;23.364;2023-02-19T08:57:25;95510.28;;;16.02;41.90
5691;BME280;2870;42.680;23.364;2023-02-19T08:59:53;95509.63;;;16.58;40.27
5691;BME280;2870;42.680;23.364;2023-02-19T09:02:20;95500.53;;;17.25;39.94
5691;BME280;2870;42.680;23.364;2023-02-19T09:04:47;95502.75;;;17.56;38.76
5691;BME280;2870;42.680;23.364;2023-02-19T09:07:14;95499.72;;;18.02;38.28
5691;BME280;2870;42.680;23.364;2023-02-19T09:09:41;95501.25;;;18.34;36.40
5691;BME280;2870;42.680;23.364;2023-02-19T09:12:11;95500.09;;;19.11;36.42
5691;BME280;2870;42.680;23.364;2023-02-19T09:14:38;95488.25;;;19.57;35.71
5691;BME280;2870;42.680;23.364;2023-02-19T09:17:06;95487.13;;;19.96;35.06
5691;BME280;2870;42.680;23.364;2023-02-19T09:19:33;95478.16;;;20.93;33.94
5691;BME280;2870;42.680;23.364;2023-02-19T09:22:00;95481.34;;;21.11;33.24
5691;BME280;2870;42.680;23.364;2023-02-19T09:24:28;95468.66;;;21.88;31.98
5691;BME280;2870;42.680;23.364;2023-02-19T09:26:54;95467.75;;;21.72;32.00
5691;BME280;2870;42.680;23.364;2023-02-19T09:29:25;95480.44;;;21.94;32.35
5691;BME280;2870;42.680;23.364;2023-02-19T09:31:55;95470.97;;;20.45;33.92
5691;BME280;2870;42.680;23.364;2023-02-19T09:34:22;95476.59;;;21.64;32.74
5691;BME280;2870;42.680;23.364;2023-02-19T09:36:49;95475.88;;;22.15;32.33
5691;BME280;2870;42.680;23.364;2023-02-19T09:39:16;95470.59;;;22.23;31.73
5691;BME280;2870;42.680;23.364;2023-02-19T09:41:45;95471.22;;;22.21;32.34
5691;BME280;2870;42.680;23.364;2023-02-19T09:44:17;95463.75;;;21.52;33.50
5691;BME280;2870;42.680;23.364;2023-02-19T09:46:49;95466.31;;;22.49;31.49
5691;BME280;2870;42.680;23.364;2023-02-19T09:49:19;95466.28;;;21.96;33.26
5691;BME280;2870;42.680;23.364;2023-02-19T09:51:51;95467.25;;;21.50;33.01
5691;BME280;2870;42.680;23.364;2023-02-19T09:54:23;95463.09;;;21.28;32.75
5691;BME280;2870;42.680;23.364;2023-02-19T09:56:50;95457.81;;;21.10;33.07
5691;BME280;2870;42.680;23.364;2023-02-19T09:59:20;95454.13;;;21.45;32.46
5691;BME280;2870;42.680;23.364;2023-02-19T10:01:55;95446.50;;;22.40;31.61
5691;BME280;2870;42.680;23.364;2023-02-19T10:04:23;95441.38;;;21.60;31.36
5691;BME280;2870;42.680;23.364;2023-02-19T10:06:50;95427.16;;;21.11;32.51
5691;BME280;2870;42.680;23.364;2023-02-19T10:09:21;95420.94;;;21.77;32.03
5691;BME280;2870;42.680;23.364;2023-02-19T10:11:50;95418.41;;;21.83;30.71
5691;BME280;2870;42.680;23.364;2023-02-19T10:14:21;95419.09;;;22.62;30.13
5691;BME280;2870;42.680;23.364;2023-02-19T10:16:51;95400.00;;;21.73;31.15
5691;BME280;2870;42.680;23.364;2023-02-19T10:19:18;95406.38;;;20.97;32.99
5691;BME280;2870;42.680;23.364;2023-02-19T10:21:45;95396.53;;;21.11;32.25
5691;BME280;2870;42.680;23.364;2023-02-19T10:24:17;95397.13;;;21.73;31.84
5691;BME280;2870;42.680;23.364;2023-02-19T10:26:45;95379.03;;;21.42;31.93
5691;BME280;2870;42.680;23.364;2023-02-19T10:29:12;95378.06;;;21.38;31.95
5691;BME280;2870;42.680;23.364;2023-02-19T10:31:39;95372.13;;;20.97;31.76
5691;BME280;2870;42.680;23.364;2023-02-19T10:34:20;95369.38;;;21.10;31.27
5691;BME280;2870;42.680;23.364;2023-02-19T10:36:48;95362.94;;;21.61;31.18
5691;BME280;2870;42.680;23.364;2023-02-19T10:39:37;95356.81;;;21.15;31.67
5691;BME280;2870;42.680;23.364;2023-02-19T10:42:16;95349.63;;;21.14;32.09
5691;BME280;2870;42.680;23.364;2023-02-19T10:44:45;95343.03;;;20.26;32.63
5691;BME280;2870;42.680;23.364;2023-02-19T10:47:17;95343.75;;;20.61;32.17
5691;BME280;2870;42.680;23.364;2023-02-19T10:49:47;95341.53;;;21.23;31.88
5691;BME280;2870;42.680;23.364;2023-02-19T10:52:19;95334.69;;;21.28;31.21
5691;BME280;2870;42.680;23.364;2023-02-19T10:54:54;95335.84;;;20.25;32.03
5691;BME280;2870;42.680;23.364;2023-02-19T10:57:27;95327.47;;;19.80;33.29
5691;BME280;2870;42.680;23.364;2023-02-19T11:00:01;95334.47;;;20.49;32.10
5691;BME280;2870;42.680;23.364;2023-02-19T11:02:29;95308.91;;;20.63;31.87
5691;BME280;2870;42.680;23.364;2023-02-19T11:05:15;95313.19;;;20.27;32.35
5691;BME280;2870;42.680;23.364;2023-02-19T11:07:44;95285.63;;;19.71;32.92
5691;BME280;2870;42.680;23.364;2023-02-19T11:10:25;95292.97;;;19.29;33.75
5691;BME280;2870;42.680;23.364;2023-02-19T11:12:57;95287.31;;;19.52;33.29
5691;BME280;2870;42.680;23.364;2023-02-19T11:15:27;95284.44;;;19.29;33.62
5691;BME280;2870;42.680;23.364;2023-02-19T11:17:57;95283.03;;;19.63;33.44
5691;BME280;2870;42.680;23.364;2023-02-19T11:20:27;95273.31;;;19.56;33.40
5691;BME280;2870;42.680;23.364;2023-02-19T11:22:57;95269.91;;;19.70;33.71
5691;BME280;2870;42.680;23.364;2023-02-19T11:25:26;95268.78;;;19.98;33.27
5691;BME280;2870;42.680;23.364;2023-02-19T11:27:57;95265.28;;;19.53;34.35
5691;BME280;2870;42.680;23.364;2023-02-19T11:30:33;95256.09;;;19.08;34.06
5691;BME280;2870;42.680;23.364;2023-02-19T11:33:18;95248.09;;;19.51;33.62
5691;BME280;2870;42.680;23.364;2023-02-19T11:35:48;95250.19;;;19.50;33.70
5691;BME280;2870;42.680;23.364;2023-02-19T11:38:17;95235.50;;;18.86;34.08
5691;BME280;2870;42.680;23.364;2023-02-19T11:40:51;95239.91;;;19.45;34.48
5691;BME280;2870;42.680;23.364;2023-02-19T11:43:30;95241.09;;;19.64;33.25
5691;BME280;2870;42.680;23.364;2023-02-19T11:46:06;95225.47;;;19.41;33.98
5691;BME280;2870;42.680;23.364;2023-02-19T11:48:51;95224.22;;;19.44;33.79
5691;BME280;2870;42.680;23.364;2023-02-19T11:51:30;95225.22;;;19.37;33.49
5691;BME280;2870;42.680;23.364;2023-02-19T11:54:11;95226.97;;;19.77;33.55
5691;BME280;2870;42.680;23.364;2023-02-19T11:56:41;95210.34;;;19.27;33.50
5691;BME280;2870;42.680;23.364;2023-02-19T11:59:16;95211.09;;;19.27;33.34
5691;BME280;2870;42.680;23.364;2023-02-19T12:01:56;95210.34;;;19.50;33.52
5691;BME280;2870;42.680;23.364;2023-02-19T12:04:59;95200.34;;;19.26;32.99
5691;BME280;2870;42.680;23.364;2023-02-19T12:07:57;95187.09;;;19.07;32.47
5691;BME280;2870;42.680;23.364;2023-02-19T12:10:31;95175.72;;;19.54;32.46
5691;BME280;2870;42.680;23.364;2023-02-19T12:13:06;95176.06;;;19.95;32.05
5691;BME280;2870;42.680;23.364;2023-02-19T12:15:51;95174.00;;;19.37;32.56
5691;BME280;2870;42.680;23.364;2023-02-19T12:18:35;95174.50;;;19.80;32.04
5691;BME280;2870;42.680;23.364;2023-02-19T12:21:19;95162.97;;;19.78;32.05
5691;BME280;2870;42.680;23.364;2023-02-19T12:24:25;95164.13;;;19.62;31.82
5691;BME280;2870;42.680;23.364;2023-02-19T12:27:06;95152.97;;;19.66;31.35
5691;BME280;2870;42.680;23.364;2023-02-19T12:29:53;95148.28;;;19.70;31.94
5691;BME280;2870;42.680;23.364;2023-02-19T12:32:35;95138.59;;;19.87;31.14
5691;BME280;2870;42.680;23.364;2023-02-19T12:35:46;95127.47;;;19.56;31.08
5691;BME280;2870;42.680;23.364;2023-02-19T12:38:21;95123.69;;;19.63;30.91
5691;BME280;2870;42.680;23.364;2023-02-19T12:41:08;95117.28;;;19.88;31.07
5691;BME280;2870;42.680;23.364;2023-02-19T12:43:40;95120.38;;;19.92;31.59
5691;BME280;2870;42.680;23.364;2023-02-19T12:46:14;95122.53;;;19.80;31.65
5691;BME280;2870;42.680;23.364;2023-02-19T12:48:48;95105.09;;;19.62;31.87
5691;BME280;2870;42.680;23.364;2023-02-19T12:51:21;95102.25;;;19.62;31.87
5691;BME280;2870;42.680;23.364;2023-02-19T12:53:53;95099.75;;;19.56;31.69
5691;BME280;2870;42.680;23.364;2023-02-19T12:56:26;95087.00;;;19.81;32.28
5691;BME280;2870;42.680;23.364;2023-02-19T12:58:57;95093.34;;;19.68;32.28
5691;BME280;2870;42.680;23.364;2023-02-19T13:01:30;95085.09;;;19.97;32.26
5691;BME280;2870;42.680;23.364;2023-02-19T13:04:14;95083.88;;;19.89;31.81
5691;BME280;2870;42.680;23.364;2023-02-19T13:06:48;95071.97;;;19.43;32.38
5691;BME280;2870;42.680;23.364;2023-02-19T13:09:20;95049.50;;;19.36;32.60
5691;BME280;2870;42.680;23.364;2023-02-19T13:11:55;95069.09;;;19.67;32.32
5691;BME280;2870;42.680;23.364;2023-02-19T13:14:27;95068.41;;;19.31;32.26
5691;BME280;2870;42.680;23.364;2023-02-19T13:16:59;95058.44;;;19.06;32.33
5691;BME280;2870;42.680;23.364;2023-02-19T13:19:27;95062.69;;;19.43;31.98
5691;BME280;2870;42.680;23.364;2023-02-19T13:22:09;95056.28;;;19.42;32.44
5691;BME280;2870;42.680;23.364;2023-02-19T13:24:59;95055.25;;;19.61;31.85
5691;BME280;2870;42.680;23.364;2023-02-19T13:27:47;95041.94;;;19.28;32.04
5691;BME280;2870;42.680;23.364;2023-02-19T13:30:32;95022.91;;;19.31;31.86
5691;BME280;2870;42.680;23.364;2023-02-19T13:33:10;95038.72;;;19.34;31.95
5691;BME280;2870;42.680;23.364;2023-02-19T13:36:00;95029.41;;;18.96;32.35
5691;BME280;2870;42.680;23.364;2023-02-19T13:38:30;95028.41;;;18.92;32.97
5691;BME280;2870;42.680;23.364;2023-02-19T13:40:58;95032.84;;;19.18;32.53
5691;BME280;2870;42.680;23.364;2023-02-19T13:43:29;95032.97;;;19.09;32.29